TimeCDT,TemperatureF,Dew PointF,Humidity,Sea Level PressureIn,VisibilityMPH,Wind Direction,Wind SpeedMPH,Gust SpeedMPH,PrecipitationIn,Events,Conditions,WindDirDegrees,DateUTC
12:56 AM,35.6,17.6,48,30.09,10.0,North,4.6,-,N/A,,Clear,10,2013-04-05 05:56:00
1:56 AM,29.1,19.0,66,30.12,10.0,NNW,4.6,-,N/A,,Clear,330,2013-04-05 06:56:00
2:56 AM,27.1,20.1,75,30.14,10.0,NNW,4.6,-,N/A,,Clear,340,2013-04-05 07:56:00
3:56 AM,28.0,18.1,66,30.15,10.0,North,4.6,-,N/A,,Clear,350,2013-04-05 08:56:00
4:56 AM,25.2,20.1,81,30.18,10.0,NNW,3.5,-,N/A,,Clear,330,2013-04-05 09:56:00
5:56 AM,25.2,18.1,75,30.21,10.0,NNW,3.5,-,N/A,,Clear,340,2013-04-05 10:56:00
6:56 AM,24.1,18.1,78,30.23,10.0,North,3.5,-,N/A,,Clear,360,2013-04-05 11:56:00
7:56 AM,30.0,19.0,64,30.26,10.0,NNE,5.8,-,N/A,,Clear,30,2013-04-05 12:56:00
8:56 AM,32.0,19.0,59,30.27,10.0,ENE,10.4,-,N/A,,Clear,60,2013-04-05 13:56:00
9:56 AM,33.8,17.6,52,30.26,10.0,Variable,3.5,-,N/A,,Clear,0,2013-04-05 14:56:00
10:56 AM,34.9,18.1,51,30.27,10.0,Calm,Calm,-,N/A,,Clear,0,2013-04-05 15:56:00
11:56 AM,36.9,19.0,49,30.26,10.0,East,8.1,-,N/A,,Clear,90,2013-04-05 16:56:00
12:56 PM,39.2,17.6,42,30.23,10.0,Variable,5.8,-,N/A,,Clear,0,2013-04-05 17:56:00
1:56 PM,39.9,17.1,40,30.23,10.0,Variable,3.5,-,N/A,,Clear,0,2013-04-05 18:56:00
2:56 PM,41.9,21.0,43,30.21,10.0,SSE,6.9,-,N/A,,Clear,160,2013-04-05 19:56:00
3:56 PM,43.0,20.1,40,30.19,10.0,SSE,5.8,-,N/A,,Mostly Cloudy,160,2013-04-05 20:56:00
4:56 PM,41.9,20.1,42,30.19,10.0,SSE,6.9,-,N/A,,Mostly Cloudy,160,2013-04-05 21:56:00
5:56 PM,41.0,20.1,43,30.19,10.0,ESE,6.9,-,N/A,,Scattered Clouds,120,2013-04-05 22:56:00
6:56 PM,38.8,21.0,49,30.18,10.0,ESE,9.2,-,N/A,,Partly Cloudy,110,2013-04-05 23:56:00
7:56 PM,36.9,19.0,49,30.17,10.0,East,8.1,-,N/A,,Mostly Cloudy,100,2013-04-06 00:56:00
8:56 PM,36.0,18.1,48,30.17,10.0,ESE,6.9,-,N/A,,Partly Cloudy,110,2013-04-06 01:56:00
9:56 PM,35.6,23.0,60,30.15,10.0,SE,9.2,-,N/A,,Mostly Cloudy,130,2013-04-06 02:56:00
10:25 PM,33.8,24.8,70,30.15,10.0,SE,10.4,-,N/A,,Overcast,140,2013-04-06 03:25:00
10:56 PM,32.0,26.1,79,30.18,2.5,SE,10.4,-,0.00,Snow,Light Snow,130,2013-04-06 03:56:00
11:06 PM,30.2,26.6,86,30.15,1.5,ESE,8.1,-,0.00,Snow,Light Snow,120,2013-04-06 04:06:00
11:13 PM,30.2,26.6,86,30.16,1.8,ESE,6.9,-,0.00,Snow,Light Snow,120,2013-04-06 04:13:00
11:25 PM,30.2,28.4,93,30.16,1.0,SE,8.1,-,0.00,Snow,Light Snow,130,2013-04-06 04:25:00
11:35 PM,30.2,28.4,93,30.16,1.2,ESE,6.9,-,0.00,Snow,Light Snow,110,2013-04-06 04:35:00
11:56 PM,29.1,28.0,96,30.17,1.0,East,6.9,-,0.00,Snow,Light Snow,100,2013-04-06 04:56:00